sensor_id;sensor_type;location;lat;lon;timestamp;temperature;humidity
12872;DHT22;6504;53.766;9.626;2024-02-04T00:00:48;5.90;99.90
12872;DHT22;6504;53.766;9.626;2024-02-04T00:03:16;5.90;99.90
12872;DHT22;6504;53.766;9.626;2024-02-04T00:05:47;5.90;99.90
12872;DHT22;6504;53.766;9.626;2024-02-04T00:08:16;5.90;99.90
12872;DHT22;6504;53.766;9.626;2024-02-04T00:10:44;5.80;99.90
12872;DHT22;6504;53.766;9.626;2024-02-04T00:13:12;5.80;99.90
12872;DHT22;6504;53.766;9.626;2024-02-04T00:15:40;5.80;99.90
12872;DHT22;6504;53.766;9.626;2024-02-04T00:18:09;5.80;99.90
12872;DHT22;6504;53.766;9.626;2024-02-04T00:20:37;5.80;99.90
12872;DHT22;6504;53.766;9.626;2024-02-04T00:23:05;5.70;99.90
12872;DHT22;6504;53.766;9.626;2024-02-04T00:25:34;5.80;99.90
12872;DHT22;6504;53.766;9.626;2024-02-04T00:28:03;5.80;99.90
12872;DHT22;6504;53.766;9.626;2024-02-04T00:30:32;5.80;99.90
12872;DHT22;6504;53.766;9.626;2024-02-04T00:33:00;5.80;99.90
12872;DHT22;6504;53.766;9.626;2024-02-04T00:35:30;5.70;99.90
12872;DHT22;6504;53.766;9.626;2024-02-04T00:37:58;5.70;99.90
12872;DHT22;6504;53.766;9.626;2024-02-04T00:40:27;5.70;99.90
12872;DHT22;6504;53.766;9.626;2024-02-04T00:42:56;5.70;99.90
12872;DHT22;6504;53.766;9.626;2024-02-04T00:45:24;5.60;99.90
12872;DHT22;6504;53.766;9.626;2024-02-04T00:47:52;5.60;99.90
12872;DHT22;6504;53.766;9.626;2024-02-04T00:50:21;5.60;99.90
12872;DHT22;6504;53.766;9.626;2024-02-04T00:52:49;5.60;99.90
12872;DHT22;6504;53.766;9.626;2024-02-04T00:55:20;5.60;99.90
12872;DHT22;6504;53.766;9.626;2024-02-04T00:57:48;5.60;99.90
12872;DHT22;6504;53.766;9.626;2024-02-04T01:00:18;5.60;99.90
12872;DHT22;6504;53.766;9.626;2024-02-04T01:02:46;5.60;99.90
12872;DHT22;6504;53.766;9.626;2024-02-04T01:05:14;5.70;99.90
12872;DHT22;6504;53.766;9.626;2024-02-04T01:07:42;5.70;99.90
12872;DHT22;6504;53.766;9.626;2024-02-04T01:10:10;5.70;99.90
12872;DHT22;6504;53.766;9.626;2024-02-04T01:12:39;5.70;99.90
12872;DHT22;6504;53.766;9.626;2024-02-04T01:15:08;5.70;99.90
12872;DHT22;6504;53.766;9.626;2024-02-04T01:17:37;5.70;99.90
12872;DHT22;6504;53.766;9.626;2024-02-04T01:20:07;5.70;99.90
12872;DHT22;6504;53.766;9.626;2024-02-04T01:22:35;5.70;99.90
12872;DHT22;6504;53.766;9.626;2024-02-04T01:25:04;5.70;99.90
12872;DHT22;6504;53.766;9.626;2024-02-04T01:27:33;5.80;99.90
12872;DHT22;6504;53.766;9.626;2024-02-04T01:30:01;5.80;99.90
12872;DHT22;6504;53.766;9.626;2024-02-04T01:32:29;5.80;99.90
12872;DHT22;6504;53.766;9.626;2024-02-04T01:34:59;5.80;99.90
12872;DHT22;6504;53.766;9.626;2024-02-04T01:37:27;5.80;99.90
12872;DHT22;6504;53.766;9.626;2024-02-04T01:39:55;5.80;99.90
12872;DHT22;6504;53.766;9.626;2024-02-04T01:42:23;5.80;99.90
12872;DHT22;6504;53.766;9.626;2024-02-04T01:44:51;5.80;99.90
12872;DHT22;6504;53.766;9.626;2024-02-04T01:47:19;5.90;99.90
12872;DHT22;6504;53.766;9.626;2024-02-04T01:49:48;5.90;99.90
12872;DHT22;6504;53.766;9.626;2024-02-04T01:52:18;5.90;99.90
12872;DHT22;6504;53.766;9.626;2024-02-04T01:54:46;5.90;99.90
12872;DHT22;6504;53.766;9.626;2024-02-04T01:57:16;5.90;99.90
12872;DHT22;6504;53.766;9.626;2024-02-04T01:59:45;6.00;99.90
12872;DHT22;6504;53.766;9.626;2024-02-04T02:02:15;5.90;99.90
12872;DHT22;6504;53.766;9.626;2024-02-04T02:04:43;5.90;99.90
12872;DHT22;6504;53.766;9.626;2024-02-04T02:07:13;6.00;99.90
12872;DHT22;6504;53.766;9.626;2024-02-04T02:09:44;5.90;99.90
12872;DHT22;6504;53.766;9.626;2024-02-04T02:12:16;6.00;99.90
12872;DHT22;6504;53.766;9.626;2024-02-04T02:14:50;6.00;99.90
12872;DHT22;6504;53.766;9.626;2024-02-04T02:17:31;6.00;99.90
12872;DHT22;6504;53.766;9.626;2024-02-04T02:20:02;6.00;99.90
12872;DHT22;6504;53.766;9.626;2024-02-04T02:22:40;5.90;99.90
12872;DHT22;6504;53.766;9.626;2024-02-04T02:25:13;6.00;99.90
12872;DHT22;6504;53.766;9.626;2024-02-04T02:27:48;5.90;99.90
12872;DHT22;6504;53.766;9.626;2024-02-04T02:30:16;6.00;99.90
12872;DHT22;6504;53.766;9.626;2024-02-04T02:32:46;5.90;99.90
12872;DHT22;6504;53.766;9.626;2024-02-04T02:35:16;6.00;99.90
12872;DHT22;6504;53.766;9.626;2024-02-04T02:37:49;6.00;99.90
12872;DHT22;6504;53.766;9.626;2024-02-04T02:40:23;6.00;99.90
12872;DHT22;6504;53.766;9.626;2024-02-04T02:42:54;6.00;99.90
12872;DHT22;6504;53.766;9.626;2024-02-04T02:45:23;6.00;99.90
12872;DHT22;6504;53.766;9.626;2024-02-04T02:47:54;5.90;99.90
12872;DHT22;6504;53.766;9.626;2024-02-04T02:50:22;6.00;99.90
12872;DHT22;6504;53.766;9.626;2024-02-04T02:52:51;6.00;99.90
12872;DHT22;6504;53.766;9.626;2024-02-04T02:55:20;6.00;99.90
12872;DHT22;6504;53.766;9.626;2024-02-04T02:57:48;5.90;99.90
12872;DHT22;6504;53.766;9.626;2024-02-04T03:00:17;6.00;99.90
12872;DHT22;6504;53.766;9.626;2024-02-04T03:02:45;6.00;99.90
12872;DHT22;6504;53.766;9.626;2024-02-04T03:05:15;5.90;99.90
12872;DHT22;6504;53.766;9.626;2024-02-04T03:07:43;5.90;99.90
12872;DHT22;6504;53.766;9.626;2024-02-04T03:10:11;5.90;99.90
12872;DHT22;6504;53.766;9.626;2024-02-04T03:12:41;5.90;99.90
12872;DHT22;6504;53.766;9.626;2024-02-04T03:15:09;5.90;99.90
12872;DHT22;6504;53.766;9.626;2024-02-04T03:17:37;5.90;99.90
12872;DHT22;6504;53.766;9.626;2024-02-04T03:20:06;5.90;99.90
12872;DHT22;6504;53.766;9.626;2024-02-04T03:22:35;5.90;99.90
12872;DHT22;6504;53.766;9.626;2024-02-04T03:25:03;5.90;99.90
12872;DHT22;6504;53.766;9.626;2024-02-04T03:27:31;5.90;99.90
12872;DHT22;6504;53.766;9.626;2024-02-04T03:30:01;5.90;99.90
12872;DHT22;6504;53.766;9.626;2024-02-04T03:32:29;5.80;99.90
12872;DHT22;6504;53.766;9.626;2024-02-04T03:35:00;5.80;99.90
12872;DHT22;6504;53.766;9.626;2024-02-04T03:37:29;5.80;99.90
12872;DHT22;6504;53.766;9.626;2024-02-04T03:39:57;5.80;99.90
12872;DHT22;6504;53.766;9.626;2024-02-04T03:42:25;5.80;99.90
12872;DHT22;6504;53.766;9.626;2024-02-04T03:44:54;5.80;99.90
12872;DHT22;6504;53.766;9.626;2024-02-04T03:47:23;5.80;99.90
12872;DHT22;6504;53.766;9.626;2024-02-04T03:49:51;5.70;99.90
12872;DHT22;6504;53.766;9.626;2024-02-04T03:52:19;5.80;99.90
12872;DHT22;6504;53.766;9.626;2024-02-04T03:54:47;5.70;99.90
12872;DHT22;6504;53.766;9.626;2024-02-04T03:57:15;5.70;99.90
12872;DHT22;6504;53.766;9.626;2024-02-04T03:59:44;5.70;99.90
12872;DHT22;6504;53.766;9.626;2024-02-04T04:02:13;5.70;99.90
12872;DHT22;6504;53.766;9.626;2024-02-04T04:04:42;5.70;99.90
12872;DHT22;6504;53.766;9.626;2024-02-04T04:07:14;5.70;99.90
12872;DHT22;6504;53.766;9.626;2024-02-04T04:09:43;5.70;99.90
12872;DHT22;6504;53.766;9.626;2024-02-04T04:12:11;5.70;99.90
12872;DHT22;6504;53.766;9.626;2024-02-04T04:14:40;5.70;99.90
12872;DHT22;6504;53.766;9.626;2024-02-04T04:17:08;5.70;99.90
12872;DHT22;6504;53.766;9.626;2024-02-04T04:19:36;5.70;99.90
12872;DHT22;6504;53.766;9.626;2024-02-04T04:22:06;5.70;99.90
12872;DHT22;6504;53.766;9.626;2024-02-04T04:24:34;5.70;99.90
12872;DHT22;6504;53.766;9.626;2024-02-04T04:27:02;5.70;99.90
12872;DHT22;6504;53.766;9.626;2024-02-04T04:29:30;5.60;99.90
12872;DHT22;6504;53.766;9.626;2024-02-04T04:31:58;5.70;99.90
12872;DHT22;6504;53.766;9.626;2024-02-04T04:34:26;5.70;99.90
12872;DHT22;6504;53.766;9.626;2024-02-04T04:36:54;5.60;99.90
12872;DHT22;6504;53.766;9.626;2024-02-04T04:39:24;5.60;99.90
12872;DHT22;6504;53.766;9.626;2024-02-04T04:41:52;5.60;99.90
12872;DHT22;6504;53.766;9.626;2024-02-04T04:44:20;5.60;99.90
12872;DHT22;6504;53.766;9.626;2024-02-04T04:46:47;5.60;99.90
12872;DHT22;6504;53.766;9.626;2024-02-04T04:49:15;5.60;99.90
12872;DHT22;6504;53.766;9.626;2024-02-04T04:51:44;5.60;99.90
12872;DHT22;6504;53.766;9.626;2024-02-04T04:54:13;5.60;99.90
12872;DHT22;6504;53.766;9.626;2024-02-04T04:56:43;5.60;99.90
12872;DHT22;6504;53.766;9.626;2024-02-04T04:59:11;5.60;99.90
12872;DHT22;6504;53.766;9.626;2024-02-04T05:01:45;5.60;99.90
12872;DHT22;6504;53.766;9.626;2024-02-04T05:04:15;5.60;99.90
12872;DHT22;6504;53.766;9.626;2024-02-04T05:06:45;5.60;99.90
12872;DHT22;6504;53.766;9.626;2024-02-04T05:09:13;5.60;99.90
12872;DHT22;6504;53.766;9.626;2024-02-04T05:11:43;5.60;99.90
12872;DHT22;6504;53.766;9.626;2024-02-04T05:14:11;5.60;99.90
12872;DHT22;6504;53.766;9.626;2024-02-04T05:16:39;5.60;99.90
12872;DHT22;6504;53.766;9.626;2024-02-04T05:19:11;5.60;99.90
12872;DHT22;6504;53.766;9.626;2024-02-04T05:21:40;5.60;99.90
12872;DHT22;6504;53.766;9.626;2024-02-04T05:24:08;5.60;99.90
12872;DHT22;6504;53.766;9.626;2024-02-04T05:26:36;5.60;99.90
12872;DHT22;6504;53.766;9.626;2024-02-04T05:29:05;5.60;99.90
12872;DHT22;6504;53.766;9.626;2024-02-04T05:31:33;5.60;99.90
12872;DHT22;6504;53.766;9.626;2024-02-04T05:34:05;5.60;99.90
12872;DHT22;6504;53.766;9.626;2024-02-04T05:36:34;5.60;99.90
12872;DHT22;6504;53.766;9.626;2024-02-04T05:39:09;5.60;99.90
12872;DHT22;6504;53.766;9.626;2024-02-04T05:41:38;5.60;99.90
12872;DHT22;6504;53.766;9.626;2024-02-04T05:44:07;5.60;99.90
12872;DHT22;6504;53.766;9.626;2024-02-04T05:46:36;5.60;99.90
12872;DHT22;6504;53.766;9.626;2024-02-04T05:49:05;5.60;99.90
12872;DHT22;6504;53.766;9.626;2024-02-04T05:51:37;5.60;99.90
12872;DHT22;6504;53.766;9.626;2024-02-04T05:54:06;5.60;99.90
12872;DHT22;6504;53.766;9.626;2024-02-04T05:56:34;5.60;99.90
12872;DHT22;6504;53.766;9.626;2024-02-04T05:59:02;5.60;99.90
12872;DHT22;6504;53.766;9.626;2024-02-04T06:01:32;5.60;99.90
12872;DHT22;6504;53.766;9.626;2024-02-04T06:04:01;5.60;99.90
12872;DHT22;6504;53.766;9.626;2024-02-04T06:06:29;5.60;99.90
12872;DHT22;6504;53.766;9.626;2024-02-04T06:08:57;5.60;99.90
12872;DHT22;6504;53.766;9.626;2024-02-04T06:11:25;5.60;99.90
12872;DHT22;6504;53.766;9.626;2024-02-04T06:13:53;5.60;99.90
12872;DHT22;6504;53.766;9.626;2024-02-04T06:16:21;5.60;99.90
12872;DHT22;6504;53.766;9.626;2024-02-04T06:18:51;5.60;99.90
12872;DHT22;6504;53.766;9.626;2024-02-04T06:21:22;5.60;99.90
12872;DHT22;6504;53.766;9.626;2024-02-04T06:23:50;5.60;99.90
12872;DHT22;6504;53.766;9.626;2024-02-04T06:26:18;5.60;99.90
12872;DHT22;6504;53.766;9.626;2024-02-04T06:28:46;5.60;99.90
12872;DHT22;6504;53.766;9.626;2024-02-04T06:31:16;5.60;99.90
12872;DHT22;6504;53.766;9.626;2024-02-04T06:33:45;5.60;99.90
12872;DHT22;6504;53.766;9.626;2024-02-04T06:36:14;5.60;99.90
12872;DHT22;6504;53.766;9.626;2024-02-04T06:38:42;5.60;99.90
12872;DHT22;6504;53.766;9.626;2024-02-04T06:41:10;5.60;99.90
12872;DHT22;6504;53.766;9.626;2024-02-04T06:43:39;5.60;99.90
12872;DHT22;6504;53.766;9.626;2024-02-04T06:46:07;5.60;99.90
12872;DHT22;6504;53.766;9.626;2024-02-04T06:48:35;5.60;99.90
12872;DHT22;6504;53.766;9.626;2024-02-04T06:51:03;5.60;99.90
12872;DHT22;6504;53.766;9.626;2024-02-04T06:53:33;5.60;99.90
12872;DHT22;6504;53.766;9.626;2024-02-04T06:56:01;5.60;99.90
12872;DHT22;6504;53.766;9.626;2024-02-04T06:58:29;5.60;99.90
12872;DHT22;6504;53.766;9.626;2024-02-04T07:00:58;5.60;99.90
12872;DHT22;6504;53.766;9.626;2024-02-04T07:03:26;5.60;99.90
12872;DHT22;6504;53.766;9.626;2024-02-04T07:05:56;5.60;99.90
12872;DHT22;6504;53.766;9.626;2024-02-04T07:08:24;5.60;99.90
12872;DHT22;6504;53.766;9.626;2024-02-04T07:10:53;5.60;99.90
12872;DHT22;6504;53.766;9.626;2024-02-04T07:13:25;5.60;99.90
12872;DHT22;6504;53.766;9.626;2024-02-04T07:15:53;5.60;99.90
12872;DHT22;6504;53.766;9.626;2024-02-04T07:18:22;5.60;99.90
12872;DHT22;6504;53.766;9.626;2024-02-04T07:20:50;5.60;99.90
12872;DHT22;6504;53.766;9.626;2024-02-04T07:23:18;5.60;99.90
12872;DHT22;6504;53.766;9.626;2024-02-04T07:25:46;5.60;99.90
12872;DHT22;6504;53.766;9.626;2024-02-04T07:28:16;5.60;99.90
12872;DHT22;6504;53.766;9.626;2024-02-04T07:30:44;5.70;99.90
12872;DHT22;6504;53.766;9.626;2024-02-04T07:33:12;5.70;99.90
12872;DHT22;6504;53.766;9.626;2024-02-04T07:35:40;5.70;99.90
12872;DHT22;6504;53.766;9.626;2024-02-04T07:38:08;5.70;99.90
12872;DHT22;6504;53.766;9.626;2024-02-04T07:40:36;5.70;99.90
12872;DHT22;6504;53.766;9.626;2024-02-04T07:43:05;5.70;99.90
12872;DHT22;6504;53.766;9.626;2024-02-04T07:45:34;5.70;99.90
12872;DHT22;6504;53.766;9.626;2024-02-04T07:48:03;5.70;99.90
12872;DHT22;6504;53.766;9.626;2024-02-04T07:50:31;5.70;99.90
12872;DHT22;6504;53.766;9.626;2024-02-04T07:52:59;5.70;99.90
12872;DHT22;6504;53.766;9.626;2024-02-04T07:55:27;5.80;99.90
12872;DHT22;6504;53.766;9.626;2024-02-04T07:57:55;5.80;99.90
12872;DHT22;6504;53.766;9.626;2024-02-04T08:00:23;5.80;99.90
12872;DHT22;6504;53.766;9.626;2024-02-04T08:02:54;5.80;99.90
12872;DHT22;6504;53.766;9.626;2024-02-04T08:05:22;5.80;99.90
12872;DHT22;6504;53.766;9.626;2024-02-04T08:07:50;5.80;99.90
12872;DHT22;6504;53.766;9.626;2024-02-04T08:10:18;5.80;99.90
12872;DHT22;6504;53.766;9.626;2024-02-04T08:12:46;5.80;99.90
12872;DHT22;6504;53.766;9.626;2024-02-04T08:15:17;5.80;99.90
12872;DHT22;6504;53.766;9.626;2024-02-04T08:17:46;5.80;99.90
12872;DHT22;6504;53.766;9.626;2024-02-04T08:20:15;5.80;99.90
12872;DHT22;6504;53.766;9.626;2024-02-04T08:22:43;5.80;99.90
12872;DHT22;6504;53.766;9.626;2024-02-04T08:25:12;5.90;99.90
12872;DHT22;6504;53.766;9.626;2024-02-04T08:27:40;5.90;99.90
12872;DHT22;6504;53.766;9.626;2024-02-04T08:30:08;6.00;99.90
12872;DHT22;6504;53.766;9.626;2024-02-04T08:32:38;6.00;99.90
12872;DHT22;6504;53.766;9.626;2024-02-04T08:35:07;6.00;99.90
12872;DHT22;6504;53.766;9.626;2024-02-04T08:37:37;6.00;99.90
12872;DHT22;6504;53.766;9.626;2024-02-04T08:40:06;6.00;99.90
12872;DHT22;6504;53.766;9.626;2024-02-04T08:42:34;6.00;99.90
12872;DHT22;6504;53.766;9.626;2024-02-04T08:45:04;6.10;99.90
12872;DHT22;6504;53.766;9.626;2024-02-04T08:47:32;6.10;99.90
12872;DHT22;6504;53.766;9.626;2024-02-04T08:50:00;6.10;99.90
12872;DHT22;6504;53.766;9.626;2024-02-04T08:52:28;6.10;99.90
12872;DHT22;6504;53.766;9.626;2024-02-04T08:54:59;6.20;99.90
12872;DHT22;6504;53.766;9.626;2024-02-04T08:57:30;6.20;99.90
12872;DHT22;6504;53.766;9.626;2024-02-04T08:59:59;6.20;99.90
12872;DHT22;6504;53.766;9.626;2024-02-04T09:02:27;6.30;99.90
12872;DHT22;6504;53.766;9.626;2024-02-04T09:04:55;6.30;99.90
12872;DHT22;6504;53.766;9.626;2024-02-04T09:07:23;6.30;99.90
12872;DHT22;6504;53.766;9.626;2024-02-04T09:09:52;6.30;99.90
12872;DHT22;6504;53.766;9.626;2024-02-04T09:12:21;6.30;99.90
12872;DHT22;6504;53.766;9.626;2024-02-04T09:14:49;6.30;99.90
12872;DHT22;6504;53.766;9.626;2024-02-04T09:17:17;6.40;99.90
12872;DHT22;6504;53.766;9.626;2024-02-04T09:19:45;6.40;99.90
12872;DHT22;6504;53.766;9.626;2024-02-04T09:22:13;6.40;99.90
12872;DHT22;6504;53.766;9.626;2024-02-04T09:24:42;6.40;99.90
12872;DHT22;6504;53.766;9.626;2024-02-04T09:27:10;6.40;99.90
12872;DHT22;6504;53.766;9.626;2024-02-04T09:29:40;6.40;99.90
12872;DHT22;6504;53.766;9.626;2024-02-04T09:32:08;6.50;99.90
12872;DHT22;6504;53.766;9.626;2024-02-04T09:34:36;6.50;99.90
12872;DHT22;6504;53.766;9.626;2024-02-04T09:37:04;6.50;99.90
12872;DHT22;6504;53.766;9.626;2024-02-04T09:39:33;6.50;99.90
12872;DHT22;6504;53.766;9.626;2024-02-04T09:42:01;6.50;99.90
12872;DHT22;6504;53.766;9.626;2024-02-04T09:44:30;6.60;99.90
12872;DHT22;6504;53.766;9.626;2024-02-04T09:47:01;6.60;99.90
12872;DHT22;6504;53.766;9.626;2024-02-04T09:49:29;6.60;99.90
12872;DHT22;6504;53.766;9.626;2024-02-04T09:52:00;6.60;99.90
12872;DHT22;6504;53.766;9.626;2024-02-04T09:54:34;6.60;99.90
12872;DHT22;6504;53.766;9.626;2024-02-04T09:57:06;6.70;99.90
12872;DHT22;6504;53.766;9.626;2024-02-04T09:59:35;6.70;99.90
12872;DHT22;6504;53.766;9.626;2024-02-04T10:02:05;6.70;99.90
12872;DHT22;6504;53.766;9.626;2024-02-04T10:04:33;6.80;99.90
12872;DHT22;6504;53.766;9.626;2024-02-04T10:07:02;6.70;99.90
12872;DHT22;6504;53.766;9.626;2024-02-04T10:09:30;6.80;99.90
12872;DHT22;6504;53.766;9.626;2024-02-04T10:11:59;6.80;99.90
12872;DHT22;6504;53.766;9.626;2024-02-04T10:14:27;6.80;99.90
12872;DHT22;6504;53.766;9.626;2024-02-04T10:16:55;6.90;99.90
12872;DHT22;6504;53.766;9.626;2024-02-04T10:19:25;6.90;99.90
12872;DHT22;6504;53.766;9.626;2024-02-04T10:22:00;6.90;99.90
12872;DHT22;6504;53.766;9.626;2024-02-04T10:24:29;6.90;99.90
12872;DHT22;6504;53.766;9.626;2024-02-04T10:26:57;7.00;99.90
12872;DHT22;6504;53.766;9.626;2024-02-04T10:29:26;7.00;99.90
12872;DHT22;6504;53.766;9.626;2024-02-04T10:31:54;7.00;99.90
12872;DHT22;6504;53.766;9.626;2024-02-04T10:34:23;7.00;99.90
12872;DHT22;6504;53.766;9.626;2024-02-04T10:36:53;7.00;99.90
12872;DHT22;6504;53.766;9.626;2024-02-04T10:39:21;7.10;99.90
12872;DHT22;6504;53.766;9.626;2024-02-04T10:41:50;7.10;99.90
12872;DHT22;6504;53.766;9.626;2024-02-04T10:44:22;7.10;99.90
12872;DHT22;6504;53.766;9.626;2024-02-04T10:46:53;7.10;99.90
12872;DHT22;6504;53.766;9.626;2024-02-04T10:49:23;7.10;99.90
12872;DHT22;6504;53.766;9.626;2024-02-04T10:51:56;7.20;99.90
12872;DHT22;6504;53.766;9.626;2024-02-04T10:54:27;7.20;99.90
12872;DHT22;6504;53.766;9.626;2024-02-04T10:57:02;7.20;99.90
12872;DHT22;6504;53.766;9.626;2024-02-04T10:59:31;7.20;99.90
12872;DHT22;6504;53.766;9.626;2024-02-04T11:02:00;7.20;99.90
12872;DHT22;6504;53.766;9.626;2024-02-04T11:04:29;7.20;99.90
12872;DHT22;6504;53.766;9.626;2024-02-04T11:07:00;7.20;99.90
12872;DHT22;6504;53.766;9.626;2024-02-04T11:09:29;7.30;99.90
12872;DHT22;6504;53.766;9.626;2024-02-04T11:11:59;7.30;99.90
12872;DHT22;6504;53.766;9.626;2024-02-04T11:14:29;7.30;99.90
12872;DHT22;6504;53.766;9.626;2024-02-04T11:17:18;7.30;99.90
12872;DHT22;6504;53.766;9.626;2024-02-04T11:20:01;7.40;99.90
12872;DHT22;6504;53.766;9.626;2024-02-04T11:23:05;7.40;99.90
12872;DHT22;6504;53.766;9.626;2024-02-04T11:25:44;7.40;99.90
12872;DHT22;6504;53.766;9.626;2024-02-04T11:28:15;7.40;99.90
12872;DHT22;6504;53.766;9.626;2024-02-04T11:30:44;7.50;99.90
12872;DHT22;6504;53.766;9.626;2024-02-04T11:33:13;7.50;99.90
12872;DHT22;6504;53.766;9.626;2024-02-04T11:35:45;7.50;99.90
12872;DHT22;6504;53.766;9.626;2024-02-04T11:38:18;7.50;99.90
12872;DHT22;6504;53.766;9.626;2024-02-04T11:40:47;7.50;99.90
12872;DHT22;6504;53.766;9.626;2024-02-04T11:43:15;7.50;99.90
12872;DHT22;6504;53.766;9.626;2024-02-04T11:45:43;7.50;99.90
12872;DHT22;6504;53.766;9.626;2024-02-04T11:48:13;7.60;99.90
12872;DHT22;6504;53.766;9.626;2024-02-04T11:50:41;7.60;99.90
12872;DHT22;6504;53.766;9.626;2024-02-04T11:53:11;7.60;99.90
12872;DHT22;6504;53.766;9.626;2024-02-04T11:55:41;7.60;99.90
12872;DHT22;6504;53.766;9.626;2024-02-04T11:58:12;7.60;99.90
12872;DHT22;6504;53.766;9.626;2024-02-04T12:00:42;7.70;99.90
12872;DHT22;6504;53.766;9.626;2024-02-04T12:03:12;7.70;99.90
12872;DHT22;6504;53.766;9.626;2024-02-04T12:05:40;7.70;99.90
12872;DHT22;6504;53.766;9.626;2024-02-04T12:08:08;7.70;99.90
12872;DHT22;6504;53.766;9.626;2024-02-04T12:10:38;7.70;99.90
12872;DHT22;6504;53.766;9.626;2024-02-04T12:13:07;7.80;99.90
12872;DHT22;6504;53.766;9.626;2024-02-04T12:15:36;7.80;99.90
12872;DHT22;6504;53.766;9.626;2024-02-04T12:18:08;7.80;99.90
12872;DHT22;6504;53.766;9.626;2024-02-04T12:20:38;7.80;99.90
12872;DHT22;6504;53.766;9.626;2024-02-04T12:23:07;7.80;99.90
12872;DHT22;6504;53.766;9.626;2024-02-04T12:25:35;7.90;99.90
12872;DHT22;6504;53.766;9.626;2024-02-04T12:28:09;7.90;99.90
12872;DHT22;6504;53.766;9.626;2024-02-04T12:30:37;7.90;99.90
12872;DHT22;6504;53.766;9.626;2024-02-04T12:33:06;7.90;99.90
12872;DHT22;6504;53.766;9.626;2024-02-04T12:35:35;7.90;99.90
12872;DHT22;6504;53.766;9.626;2024-02-04T12:38:05;7.90;99.90
12872;DHT22;6504;53.766;9.626;2024-02-04T12:40:34;7.90;99.90
12872;DHT22;6504;53.766;9.626;2024-02-04T12:43:02;7.90;99.90
12872;DHT22;6504;53.766;9.626;2024-02-04T12:45:34;7.90;99.90
12872;DHT22;6504;53.766;9.626;2024-02-04T12:48:03;7.90;99.90
12872;DHT22;6504;53.766;9.626;2024-02-04T12:50:31;7.90;99.90
12872;DHT22;6504;53.766;9.626;2024-02-04T12:53:04;7.90;99.90
12872;DHT22;6504;53.766;9.626;2024-02-04T12:55:34;7.90;99.90
12872;DHT22;6504;53.766;9.626;2024-02-04T12:58:03;7.90;99.90
12872;DHT22;6504;53.766;9.626;2024-02-04T13:00:34;7.90;99.90
12872;DHT22;6504;53.766;9.626;2024-02-04T13:03:03;7.90;99.90
12872;DHT22;6504;53.766;9.626;2024-02-04T13:05:32;7.90;99.90
12872;DHT22;6504;53.766;9.626;2024-02-04T13:08:02;7.90;99.90
12872;DHT22;6504;53.766;9.626;2024-02-04T13:10:33;7.90;99.90
12872;DHT22;6504;53.766;9.626;2024-02-04T13:13:03;7.90;99.90
12872;DHT22;6504;53.766;9.626;2024-02-04T13:15:36;7.90;99.90
12872;DHT22;6504;53.766;9.626;2024-02-04T13:18:05;7.90;99.90
12872;DHT22;6504;53.766;9.626;2024-02-04T13:20:33;7.90;99.90
12872;DHT22;6504;53.766;9.626;2024-02-04T13:23:02;7.90;99.90
12872;DHT22;6504;53.766;9.626;2024-02-04T13:25:32;7.90;99.90
12872;DHT22;6504;53.766;9.626;2024-02-04T13:28:00;7.90;99.90
12872;DHT22;6504;53.766;9.626;2024-02-04T13:30:29;7.90;99.90
12872;DHT22;6504;53.766;9.626;2024-02-04T13:32:59;7.90;99.90
12872;DHT22;6504;53.766;9.626;2024-02-04T13:35:29;7.90;99.90
12872;DHT22;6504;53.766;9.626;2024-02-04T13:37:58;7.90;99.90
12872;DHT22;6504;53.766;9.626;2024-02-04T13:40:26;7.90;99.90
12872;DHT22;6504;53.766;9.626;2024-02-04T13:42:54;7.90;99.90
12872;DHT22;6504;53.766;9.626;2024-02-04T13:45:22;7.90;99.90
12872;DHT22;6504;53.766;9.626;2024-02-04T13:47:50;7.90;99.90
12872;DHT22;6504;53.766;9.626;2024-02-04T13:50:20;7.90;99.90
12872;DHT22;6504;53.766;9.626;2024-02-04T13:52:49;7.90;99.90
12872;DHT22;6504;53.766;9.626;2024-02-04T13:55:17;7.90;99.90
12872;DHT22;6504;53.766;9.626;2024-02-04T13:57:45;7.90;99.90
12872;DHT22;6504;53.766;9.626;2024-02-04T14:00:14;7.80;99.90
12872;DHT22;6504;53.766;9.626;2024-02-04T14:02:42;7.80;99.90
12872;DHT22;6504;53.766;9.626;2024-02-04T14:05:10;7.80;99.90
12872;DHT22;6504;53.766;9.626;2024-02-04T14:07:40;7.80;99.90
12872;DHT22;6504;53.766;9.626;2024-02-04T14:10:08;7.80;99.90
12872;DHT22;6504;53.766;9.626;2024-02-04T14:12:38;7.80;99.90
12872;DHT22;6504;53.766;9.626;2024-02-04T14:15:09;7.70;99.90
12872;DHT22;6504;53.766;9.626;2024-02-04T14:17:37;7.70;99.90
12872;DHT22;6504;53.766;9.626;2024-02-04T14:20:06;7.70;99.90
12872;DHT22;6504;53.766;9.626;2024-02-04T14:22:35;7.70;99.90
12872;DHT22;6504;53.766;9.626;2024-02-04T14:25:05;7.70;99.90
12872;DHT22;6504;53.766;9.626;2024-02-04T14:27:34;7.70;99.90
12872;DHT22;6504;53.766;9.626;2024-02-04T14:30:04;7.60;99.90
12872;DHT22;6504;53.766;9.626;2024-02-04T14:32:33;7.60;99.90
12872;DHT22;6504;53.766;9.626;2024-02-04T14:35:02;7.60;99.90
12872;DHT22;6504;53.766;9.626;2024-02-04T14:37:31;7.60;99.90
12872;DHT22;6504;53.766;9.626;2024-02-04T14:40:00;7.60;99.90
12872;DHT22;6504;53.766;9.626;2024-02-04T14:42:32;7.60;99.90
12872;DHT22;6504;53.766;9.626;2024-02-04T14:45:00;7.60;99.90
12872;DHT22;6504;53.766;9.626;2024-02-04T14:47:28;7.60;99.90
12872;DHT22;6504;53.766;9.626;2024-02-04T14:49:57;7.60;99.90
12872;DHT22;6504;53.766;9.626;2024-02-04T14:52:25;7.50;99.90
12872;DHT22;6504;53.766;9.626;2024-02-04T14:54:53;7.50;99.90
12872;DHT22;6504;53.766;9.626;2024-02-04T14:57:21;7.50;99.90
12872;DHT22;6504;53.766;9.626;2024-02-04T14:59:51;7.50;99.90
12872;DHT22;6504;53.766;9.626;2024-02-04T15:02:19;7.50;99.90
12872;DHT22;6504;53.766;9.626;2024-02-04T15:04:47;7.50;99.90
12872;DHT22;6504;53.766;9.626;2024-02-04T15:07:15;7.50;99.90
12872;DHT22;6504;53.766;9.626;2024-02-04T15:09:43;7.50;99.90
12872;DHT22;6504;53.766;9.626;2024-02-04T15:12:13;7.50;99.90
12872;DHT22;6504;53.766;9.626;2024-02-04T15:14:42;7.50;99.90
12872;DHT22;6504;53.766;9.626;2024-02-04T15:17:14;7.60;99.90
12872;DHT22;6504;53.766;9.626;2024-02-04T15:19:43;7.60;99.90
12872;DHT22;6504;53.766;9.626;2024-02-04T15:22:12;7.60;99.90
12872;DHT22;6504;53.766;9.626;2024-02-04T15:24:41;7.60;99.90
12872;DHT22;6504;53.766;9.626;2024-02-04T15:27:10;7.60;99.90
12872;DHT22;6504;53.766;9.626;2024-02-04T15:29:38;7.60;99.90
12872;DHT22;6504;53.766;9.626;2024-02-04T15:32:08;7.60;99.90
12872;DHT22;6504;53.766;9.626;2024-02-04T15:34:40;7.60;99.90
12872;DHT22;6504;53.766;9.626;2024-02-04T15:37:09;7.50;99.90
12872;DHT22;6504;53.766;9.626;2024-02-04T15:39:37;7.60;99.90
12872;DHT22;6504;53.766;9.626;2024-02-04T15:42:06;7.60;99.90
12872;DHT22;6504;53.766;9.626;2024-02-04T15:44:34;7.60;99.90
12872;DHT22;6504;53.766;9.626;2024-02-04T15:47:05;7.50;99.90
12872;DHT22;6504;53.766;9.626;2024-02-04T15:49:36;7.50;99.90
12872;DHT22;6504;53.766;9.626;2024-02-04T15:52:07;7.50;99.90
12872;DHT22;6504;53.766;9.626;2024-02-04T15:54:36;7.50;99.90
12872;DHT22;6504;53.766;9.626;2024-02-04T15:57:06;7.50;99.90
12872;DHT22;6504;53.766;9.626;2024-02-04T15:59:45;7.50;99.90
12872;DHT22;6504;53.766;9.626;2024-02-04T16:02:17;7.50;99.90
12872;DHT22;6504;53.766;9.626;2024-02-04T16:04:46;7.40;99.90
12872;DHT22;6504;53.766;9.626;2024-02-04T16:07:20;7.40;99.90
12872;DHT22;6504;53.766;9.626;2024-02-04T16:09:50;7.40;99.90
12872;DHT22;6504;53.766;9.626;2024-02-04T16:12:20;7.40;99.90
12872;DHT22;6504;53.766;9.626;2024-02-04T16:14:49;7.40;99.90